createdAt,value
2023-01-27T00:00:20.126Z,20.35
2023-01-27T00:03:27.170Z,19.50
2023-01-27T00:06:31.653Z,20.17
2023-01-27T00:09:37.762Z,22.50
2023-01-27T00:13:01.769Z,21.17
2023-01-27T00:16:08.443Z,23.73
2023-01-27T00:19:07.934Z,21.25
2023-01-27T00:22:18.401Z,23.55
2023-01-27T00:25:24.696Z,21.68
2023-01-27T00:28:32.344Z,18.98
2023-01-27T00:31:55.561Z,22.65
2023-01-27T00:35:01.353Z,22.87
2023-01-27T00:38:06.795Z,21.10
2023-01-27T00:41:27.569Z,19.45
2023-01-27T00:44:33.178Z,19.95
2023-01-27T00:47:38.337Z,22.20
2023-01-27T00:50:46.033Z,22.65
2023-01-27T00:53:52.108Z,20.45
2023-01-27T00:56:58.756Z,21.82
2023-01-27T01:00:04.669Z,22.93
2023-01-27T01:03:10.277Z,23.22
2023-01-27T01:06:20.220Z,21.27
2023-01-27T01:12:10.566Z,23.52
2023-01-27T01:15:17.339Z,24.63
2023-01-27T01:18:23.768Z,23.73
2023-01-27T01:21:29.950Z,23.67
2023-01-27T01:24:35.900Z,20.32
2023-01-27T01:27:44.937Z,23.07
2023-01-27T01:30:51.037Z,22.05
2023-01-27T01:33:58.549Z,22.75
2023-01-27T01:37:04.455Z,23.22
2023-01-27T01:40:03.662Z,21.80
2023-01-27T01:43:14.418Z,21.62
2023-01-27T01:46:19.967Z,27.42
2023-01-27T01:49:25.658Z,24.20
2023-01-27T01:52:34.099Z,23.35
2023-01-27T01:55:40.704Z,21.37
2023-01-27T01:58:46.464Z,21.62
2023-01-27T02:01:54.064Z,21.25
2023-01-27T02:05:14.541Z,23.35
2023-01-27T02:08:37.122Z,22.17
2023-01-27T02:11:43.980Z,23.38
2023-01-27T02:14:50.258Z,21.27
2023-01-27T02:17:56.162Z,21.82
2023-01-27T02:21:06.551Z,25.40
2023-01-27T02:24:18.713Z,21.30
2023-01-27T02:27:24.659Z,22.95
2023-01-27T02:30:23.654Z,22.40
2023-01-27T02:33:29.306Z,23.07
2023-01-27T02:36:28.616Z,22.48
2023-01-27T02:39:15.371Z,27.65
2023-01-27T02:42:07.734Z,28.25
2023-01-27T02:45:00.235Z,27.55
2023-01-27T02:48:05.457Z,33.10
2023-01-27T02:51:11.025Z,34.63
2023-01-27T02:54:17.801Z,26.77
2023-01-27T02:57:23.890Z,40.30
2023-01-27T03:00:44.715Z,36.75
2023-01-27T03:03:55.520Z,25.10
2023-01-27T03:07:02.362Z,26.35
2023-01-27T03:10:08.269Z,31.62
2023-01-27T03:13:13.532Z,27.82
2023-01-27T03:16:38.733Z,31.70
2023-01-27T03:19:43.783Z,24.82
2023-01-27T03:22:49.637Z,22.98
2023-01-27T03:25:53.782Z,24.10
2023-01-27T03:29:20.580Z,29.70
2023-01-27T03:32:26.596Z,25.00
2023-01-27T03:35:39.452Z,31.97
2023-01-27T03:39:03.124Z,37.75
2023-01-27T03:42:20.237Z,36.63
2023-01-27T03:45:43.415Z,27.32
2023-01-27T03:48:50.568Z,28.38
2023-01-27T03:51:57.177Z,28.10
2023-01-27T03:55:02.453Z,27.07
2023-01-27T03:58:27.557Z,30.05
2023-01-27T04:01:36.208Z,28.62
2023-01-27T04:04:59.222Z,31.95
2023-01-27T04:08:05.048Z,42.33
2023-01-27T04:11:35.263Z,41.98
2023-01-27T04:14:46.331Z,35.50
2023-01-27T04:17:52.418Z,33.83
2023-01-27T04:20:58.258Z,35.08
2023-01-27T04:24:03.326Z,29.37
2023-01-27T04:27:19.522Z,27.27
2023-01-27T04:30:25.174Z,25.20
2023-01-27T04:33:31.594Z,28.75
2023-01-27T04:36:38.142Z,23.02
2023-01-27T04:39:44.165Z,27.80
2023-01-27T04:42:49.304Z,19.62
2023-01-27T04:45:55.539Z,14.70
2023-01-27T04:49:03.244Z,13.65
2023-01-27T04:52:10.037Z,13.40
2023-01-27T04:55:16.311Z,15.45
2023-01-27T04:58:23.479Z,13.13
2023-01-27T05:01:29.645Z,15.45
2023-01-27T05:04:36.842Z,16.62
2023-01-27T05:07:43.248Z,18.92
2023-01-27T05:10:48.264Z,18.12
2023-01-27T05:13:55.515Z,18.60
2023-01-27T05:17:01.758Z,29.25
2023-01-27T05:20:07.375Z,27.73
2023-01-27T05:23:30.606Z,46.40
2023-01-27T05:26:38.929Z,29.60
2023-01-27T05:29:44.368Z,29.65
2023-01-27T05:32:50.946Z,32.67
2023-01-27T05:35:56.614Z,24.10
2023-01-27T05:39:02.760Z,17.37
2023-01-27T05:42:07.937Z,15.50
2023-01-27T05:45:13.571Z,17.17
2023-01-27T05:48:18.814Z,38.20
2023-01-27T05:51:25.410Z,23.15
2023-01-27T05:54:32.104Z,26.73
2023-01-27T05:57:37.393Z,20.75
2023-01-27T06:00:43.649Z,35.58
2023-01-27T06:03:49.422Z,26.87
2023-01-27T06:06:55.996Z,19.62
2023-01-27T06:10:01.936Z,21.62
2023-01-27T06:13:07.314Z,26.85
2023-01-27T06:16:06.465Z,25.02
2023-01-27T06:19:12.257Z,21.85
2023-01-27T06:22:17.899Z,14.85
2023-01-27T06:25:24.019Z,17.05
2023-01-27T06:28:30.252Z,20.75
2023-01-27T06:31:35.539Z,20.60
2023-01-27T06:34:41.381Z,22.65
2023-01-27T06:37:46.575Z,24.55
2023-01-27T06:40:44.895Z,26.50
2023-01-27T06:43:51.179Z,29.80
2023-01-27T06:46:57.889Z,48.83
2023-01-27T06:50:03.276Z,23.83
2023-01-27T06:53:16.740Z,22.67
2023-01-27T06:56:28.556Z,20.17
2023-01-27T06:59:36.502Z,20.12
2023-01-27T07:02:43.519Z,22.40
2023-01-27T07:05:49.530Z,27.52
2023-01-27T07:08:57.773Z,26.85
2023-01-27T07:12:03.492Z,28.83
2023-01-27T07:15:10.758Z,27.02
2023-01-27T07:18:10.706Z,29.32
2023-01-27T07:21:19.973Z,25.90
2023-01-27T07:24:26.359Z,27.32
2023-01-27T07:27:36.242Z,27.90
2023-01-27T07:30:42.506Z,29.37
2023-01-27T07:33:49.305Z,28.90
2023-01-27T07:36:55.272Z,28.83
2023-01-27T07:40:00.757Z,29.37
2023-01-27T07:43:06.596Z,29.37
2023-01-27T07:46:13.507Z,30.68
2023-01-27T07:49:19.816Z,30.05
2023-01-27T07:52:27.636Z,28.98
2023-01-27T07:55:36.781Z,42.50
2023-01-27T07:58:43.957Z,43.63
2023-01-27T08:01:50.643Z,40.45
2023-01-27T08:04:56.774Z,37.20
2023-01-27T08:08:05.556Z,35.55
2023-01-27T08:11:15.197Z,45.38
2023-01-27T08:14:20.343Z,29.32
2023-01-27T08:17:25.823Z,40.55
2023-01-27T08:20:24.421Z,44.27
2023-01-27T08:23:30.112Z,31.50
2023-01-27T08:26:35.022Z,52.70
2023-01-27T08:29:40.258Z,46.02
2023-01-27T08:32:46.212Z,37.65
2023-01-27T08:35:52.402Z,28.32
2023-01-27T08:38:59.007Z,27.67
2023-01-27T08:42:05.812Z,27.30
2023-01-27T08:45:11.035Z,27.17
2023-01-27T08:48:17.018Z,30.10
2023-01-27T08:51:23.395Z,26.12
2023-01-27T08:54:34.730Z,27.35
2023-01-27T08:57:42.015Z,26.23
2023-01-27T09:00:48.269Z,25.65
2023-01-27T09:03:53.779Z,24.57
2023-01-27T09:07:00.439Z,23.47
2023-01-27T09:10:20.226Z,24.80
2023-01-27T09:13:14.004Z,24.75
2023-01-27T09:16:19.584Z,24.32
2023-01-27T09:19:25.009Z,24.72
2023-01-27T09:22:30.167Z,25.43
2023-01-27T09:25:36.709Z,22.93
2023-01-27T09:28:41.929Z,22.25
2023-01-27T09:31:46.718Z,23.92
2023-01-27T09:34:54.448Z,21.48
2023-01-27T09:38:09.908Z,27.05
2023-01-27T09:41:41.925Z,23.18
2023-01-27T09:45:28.193Z,22.50
2023-01-27T09:49:19.218Z,23.83
2023-01-27T09:52:48.247Z,22.98
2023-01-27T09:56:30.094Z,22.62
2023-01-27T09:59:45.700Z,26.27
2023-01-27T10:03:13.578Z,23.47
2023-01-27T10:07:12.754Z,25.72
2023-01-27T10:10:40.432Z,24.40
2023-01-27T10:14:09.280Z,26.35
2023-01-27T10:17:45.112Z,24.80
2023-01-27T10:21:08.877Z,25.43
2023-01-27T10:24:28.842Z,26.77
2023-01-27T10:27:38.537Z,26.17
2023-01-27T10:30:51.111Z,25.05
2023-01-27T10:34:09.690Z,23.62
2023-01-27T10:37:42.055Z,28.12
2023-01-27T10:41:07.250Z,24.07
2023-01-27T10:44:39.541Z,26.80
2023-01-27T10:47:58.563Z,26.65
2023-01-27T10:51:18.000Z,26.70
2023-01-27T10:54:33.379Z,27.63
2023-01-27T10:57:46.132Z,27.62
2023-01-27T11:01:19.750Z,29.05
2023-01-27T11:04:20.144Z,24.70
2023-01-27T11:07:36.087Z,26.85
2023-01-27T11:10:54.810Z,25.65
2023-01-27T11:14:03.541Z,26.07
2023-01-27T11:17:28.316Z,25.25
2023-01-27T11:20:58.937Z,24.60
2023-01-27T11:24:07.875Z,24.23
2023-01-27T11:27:30.198Z,23.90
2023-01-27T11:31:09.131Z,25.72
2023-01-27T11:34:49.402Z,25.68
2023-01-27T11:38:14.833Z,24.52
2023-01-27T11:41:12.739Z,24.82
2023-01-27T11:44:30.551Z,25.05
2023-01-27T11:47:42.328Z,22.42
2023-01-27T11:50:48.953Z,24.00
2023-01-27T11:53:54.434Z,23.73
2023-01-27T11:57:03.279Z,24.47
2023-01-27T12:00:19.222Z,24.55
2023-01-27T12:03:47.237Z,25.97
2023-01-27T12:07:32.049Z,24.43
2023-01-27T12:10:51.576Z,24.63
2023-01-27T12:14:13.324Z,24.85
2023-01-27T12:17:19.301Z,24.55
2023-01-27T12:20:55.967Z,24.10
2023-01-27T12:24:01.167Z,24.82
2023-01-27T12:27:00.341Z,27.32
2023-01-27T12:30:09.626Z,25.45
2023-01-27T12:33:14.318Z,25.62
2023-01-27T12:36:32.151Z,25.32
2023-01-27T12:40:02.870Z,24.45
2023-01-27T12:43:27.692Z,23.52
2023-01-27T12:46:40.935Z,22.60
2023-01-27T12:49:51.096Z,22.60
2023-01-27T12:52:57.522Z,22.55
2023-01-27T12:56:23.956Z,22.52
2023-01-27T12:59:30.623Z,23.47
2023-01-27T13:02:37.367Z,22.70
2023-01-27T13:05:43.343Z,21.52
2023-01-27T13:08:41.881Z,21.62
2023-01-27T13:11:53.590Z,20.47
2023-01-27T13:14:59.605Z,19.60
2023-01-27T13:18:11.412Z,20.82
2023-01-27T13:21:33.041Z,22.48
2023-01-27T13:24:51.939Z,21.37
2023-01-27T13:27:57.957Z,21.07
2023-01-27T13:31:08.866Z,21.02
2023-01-27T13:34:21.604Z,20.27
2023-01-27T13:38:02.654Z,20.72
2023-01-27T13:41:08.415Z,19.17
2023-01-27T13:44:39.047Z,19.75
2023-01-27T13:48:11.648Z,18.92
2023-01-27T13:51:26.564Z,18.85
2023-01-27T13:54:33.596Z,19.48
2023-01-27T13:58:01.727Z,19.60
2023-01-27T14:01:24.269Z,19.20
2023-01-27T14:04:58.696Z,18.40
2023-01-27T14:08:20.545Z,19.20
2023-01-27T14:12:08.086Z,19.27
2023-01-27T14:15:36.952Z,19.90
2023-01-27T14:19:01.232Z,18.95
2023-01-27T14:22:11.690Z,19.85
2023-01-27T14:25:31.380Z,17.00
2023-01-27T14:29:07.162Z,18.50
2023-01-27T14:32:51.543Z,18.82
2023-01-27T14:36:25.040Z,17.77
2023-01-27T14:40:09.145Z,17.42
2023-01-27T14:43:33.072Z,16.97
2023-01-27T14:47:08.794Z,17.35
2023-01-27T14:50:47.664Z,17.60
2023-01-27T14:54:07.272Z,15.30
2023-01-27T14:57:48.696Z,16.40
2023-01-27T15:01:21.168Z,18.00
2023-01-27T15:04:52.443Z,18.02
2023-01-27T15:08:17.582Z,18.90
2023-01-27T15:12:08.795Z,17.32
2023-01-27T15:16:02.459Z,18.52
2023-01-27T15:19:25.899Z,18.57
2023-01-27T15:22:58.647Z,18.15
2023-01-27T15:26:07.866Z,17.25
2023-01-27T15:29:14.565Z,13.70
2023-01-27T15:32:39.791Z,17.77
2023-01-27T15:35:53.832Z,17.55
2023-01-27T15:39:39.640Z,17.32
2023-01-27T15:42:34.300Z,16.97
2023-01-27T15:45:54.963Z,18.05
2023-01-27T15:49:01.655Z,19.20
2023-01-27T15:52:11.719Z,18.55
2023-01-27T15:55:18.808Z,20.23
2023-01-27T15:58:35.474Z,20.43
2023-01-27T16:01:48.716Z,17.32
2023-01-27T16:04:48.815Z,17.85
2023-01-27T16:07:46.262Z,16.75
2023-01-27T16:10:52.327Z,19.23
2023-01-27T16:13:58.278Z,18.30
2023-01-27T16:17:17.275Z,17.92
2023-01-27T16:20:36.088Z,21.82
2023-01-27T16:23:52.874Z,21.95
2023-01-27T16:27:21.045Z,20.88
2023-01-27T16:30:27.221Z,19.65
2023-01-27T16:33:42.432Z,19.60
2023-01-27T16:36:45.289Z,21.77
2023-01-27T16:39:48.414Z,20.05
2023-01-27T16:42:54.695Z,23.18
2023-01-27T16:46:03.987Z,19.77
2023-01-27T16:49:11.530Z,20.75
2023-01-27T16:52:21.228Z,20.55
2023-01-27T16:55:35.539Z,21.50
2023-01-27T16:58:46.689Z,21.77
2023-01-27T17:02:11.937Z,18.80
2023-01-27T17:05:22.486Z,18.65
2023-01-27T17:08:43.887Z,18.40
2023-01-27T17:11:50.844Z,17.27
2023-01-27T17:14:57.725Z,15.40
2023-01-27T17:18:03.980Z,16.80
2023-01-27T17:21:10.045Z,15.68
2023-01-27T17:24:29.322Z,17.65
2023-01-27T17:27:43.538Z,17.25
2023-01-27T17:30:53.600Z,16.12
2023-01-27T17:34:02.626Z,16.87
2023-01-27T17:37:33.925Z,17.70
2023-01-27T17:40:40.008Z,16.80
2023-01-27T17:43:53.075Z,18.20
2023-01-27T17:46:58.005Z,16.20
2023-01-27T17:50:04.091Z,17.92
2023-01-27T17:53:13.061Z,16.90
2023-01-27T17:56:32.096Z,17.98
2023-01-27T17:59:37.352Z,17.70
2023-01-27T18:02:52.907Z,16.77
2023-01-27T18:05:59.958Z,16.82
2023-01-27T18:09:10.634Z,18.25
2023-01-27T18:12:13.201Z,17.10
2023-01-27T18:15:07.045Z,16.70
2023-01-27T18:18:19.672Z,12.73
2023-01-27T18:21:34.866Z,17.48
2023-01-27T18:24:41.092Z,17.17
2023-01-27T18:27:50.671Z,16.55
2023-01-27T18:31:03.948Z,16.10
2023-01-27T18:34:23.507Z,19.10
2023-01-27T18:37:47.235Z,16.75
2023-01-27T18:40:54.007Z,15.98
2023-01-27T18:44:02.960Z,17.45
2023-01-27T18:47:14.372Z,16.32
2023-01-27T18:50:31.845Z,15.93
2023-01-27T18:53:37.554Z,17.60
2023-01-27T18:56:42.565Z,19.20
2023-01-27T18:59:47.673Z,17.52
2023-01-27T19:02:53.668Z,17.70
2023-01-27T19:05:59.755Z,18.95
2023-01-27T19:09:05.346Z,19.73
2023-01-27T19:12:10.705Z,20.45
2023-01-27T19:15:16.609Z,19.70
2023-01-27T19:18:40.075Z,19.98
2023-01-27T19:21:47.461Z,20.85
2023-01-27T19:24:53.429Z,21.75
2023-01-27T19:27:57.600Z,21.37
2023-01-27T19:31:04.792Z,22.40
2023-01-27T19:34:10.186Z,22.32
2023-01-27T19:37:15.292Z,20.32
2023-01-27T19:40:27.629Z,22.75
2023-01-27T19:43:34.035Z,22.22
2023-01-27T19:46:39.953Z,21.23
2023-01-27T19:49:44.910Z,21.73
2023-01-27T19:52:50.072Z,22.13
2023-01-27T19:55:57.453Z,24.30
2023-01-27T19:58:58.285Z,21.97
2023-01-27T20:02:04.048Z,24.05
2023-01-27T20:05:02.879Z,24.45
2023-01-27T20:08:12.864Z,19.82
2023-01-27T20:11:19.421Z,28.02
2023-01-27T20:14:32.795Z,25.37
2023-01-27T20:17:38.412Z,24.07
2023-01-27T20:20:45.027Z,26.00
2023-01-27T20:23:51.341Z,23.70
2023-01-27T20:26:58.092Z,23.77
2023-01-27T20:30:04.921Z,24.43
2023-01-27T20:33:11.256Z,25.75
2023-01-27T20:36:22.627Z,26.52
2023-01-27T20:39:28.283Z,26.05
2023-01-27T20:42:35.322Z,25.40
2023-01-27T20:45:41.676Z,24.67
2023-01-27T20:48:47.880Z,24.82
2023-01-27T20:51:52.817Z,24.43
2023-01-27T20:54:58.548Z,24.87
2023-01-27T20:58:05.476Z,23.25
2023-01-27T21:01:28.773Z,24.15
2023-01-27T21:04:34.979Z,24.23
2023-01-27T21:07:40.261Z,25.85
2023-01-27T21:10:45.375Z,26.27
2023-01-27T21:13:52.088Z,24.72
2023-01-27T21:16:58.236Z,25.50
2023-01-27T21:20:03.869Z,24.52
2023-01-27T21:23:10.687Z,24.77
2023-01-27T21:26:14.714Z,28.17
2023-01-27T21:29:21.540Z,25.43
2023-01-27T21:32:27.171Z,26.25
2023-01-27T21:35:35.015Z,27.65
2023-01-27T21:38:41.157Z,26.17
2023-01-27T21:42:02.775Z,27.40
2023-01-27T21:45:20.141Z,25.92
2023-01-27T21:48:25.934Z,26.10
2023-01-27T21:51:32.480Z,25.62
2023-01-27T21:54:37.488Z,26.15
2023-01-27T21:57:42.727Z,27.37
2023-01-27T22:00:49.391Z,25.82
2023-01-27T22:03:54.607Z,25.90
2023-01-27T22:07:01.019Z,27.25
2023-01-27T22:10:06.430Z,26.35
2023-01-27T22:13:17.444Z,26.33
2023-01-27T22:16:26.972Z,27.48
2023-01-27T22:19:32.839Z,25.50
2023-01-27T22:22:39.226Z,24.82
2023-01-27T22:25:46.192Z,27.05
2023-01-27T22:28:52.740Z,27.00
2023-01-27T22:31:58.808Z,25.65
2023-01-27T22:35:04.503Z,25.88
2023-01-27T22:38:10.150Z,26.00
2023-01-27T22:41:16.824Z,25.20
2023-01-27T22:44:22.777Z,26.37
2023-01-27T22:47:29.104Z,26.55
2023-01-27T22:50:34.828Z,29.05
2023-01-27T22:53:40.806Z,25.68
2023-01-27T22:56:46.352Z,27.05
2023-01-27T22:59:45.449Z,28.47
2023-01-27T23:02:51.904Z,27.13
2023-01-27T23:05:57.994Z,26.70
2023-01-27T23:09:02.957Z,25.48
2023-01-27T23:12:09.390Z,26.95
2023-01-27T23:15:15.222Z,27.50
2023-01-27T23:18:22.749Z,27.60
2023-01-27T23:21:29.463Z,28.38
2023-01-27T23:24:35.559Z,29.72
2023-01-27T23:27:41.140Z,29.50
2023-01-27T23:30:47.101Z,29.15
2023-01-27T23:33:55.738Z,28.38
2023-01-27T23:37:00.511Z,29.30
2023-01-27T23:40:05.951Z,29.72
2023-01-27T23:43:05.548Z,28.47
2023-01-27T23:46:11.194Z,28.85
2023-01-27T23:49:17.144Z,29.30
2023-01-27T23:52:22.913Z,29.20
2023-01-27T23:55:28.870Z,28.98
2023-01-27T23:58:35.451Z,28.57
